ESST/TYF METAR and TAF weather

Enter ICAO airport designator
Station Type Date Time Source
ESST METAR 2020/03/29 12:50 UTC NOAA

ESST 291250Z AUTO 27010KT 240V310 9999 BKN076/// 05/M11 Q1028


Station Type Date Time Source
ESST Decoded METAR 2020/03/29 12:50 UTC NOAA

Station name not available
Mar 29, 2020 - 08:50 AM EDT / 2020.03.29 1250 UTC
Wind: from the W (270 degrees) at 12 MPH (10 KT) (direction variable):0
Visibility: greater than 7 mile(s):0
Sky conditions: mostly cloudy
Temperature: 41 F (5 C)
Dew Point: 12 F (-11 C)
Relative Humidity: 30%
Pressure (altimeter): 30.36 in. Hg (1028 hPa)
ob: ESST 291250Z AUTO 27010KT 240V310 9999 BKN076/// 05/M11 Q1028
cycle: 13

Station Type Date Time Source
ESST TAF UTC NOAA

Error!

Example: see airport list